Gadsden, Alabama
Current Conditions -  °F | °C
As of 2:55 AM on Saturday 22 Nov 2014 (Local Time) from KGAD Reporting Station
Clear Clear  
Wind Chill: 35°   Ceiling: Unl
Heat Index: 39°   Visibility: 10mi
Dew Point: 27°   Wind: 6mph
Humidity: 61%   Direction: 60°ENE
Pressure: 30.4"   Gusts: NA
Location:  34.01°N, 86.01°W
Report Text: KGAD 220855Z 06005KT 10SM CLR 04/M03 A3040 RMK AO1 52003
Loading
Personal Weather Stations






























Interactive Weather Map New forecast layout! Learn more

10-Day Weather Forecast

Advertisements
Track Severe Weather on mobile